Time;durP1;ratioP1;P1;durP2;ratioP2;P2;SDS_P1;SDS_P2;PMS_P1;PMS_P2;Temp;Humidity;BMP_temperature;BMP_pressure;BME280_temperature;BME280_humidity;BME280_pressure;Samples;Min_cycle;Max_cycle;Signal;HPM_P1;HPM_P2
2022/01/04 00:01:06;;;;;;;30.30;9.50;;;8.50;99.90;;;;;;5054183;28;20069;-81
2022/01/04 00:03:32;;;;;;;34.07;9.50;;;8.50;99.90;;;;;;5058448;28;20045;-81
2022/01/04 00:05:58;;;;;;;34.60;9.60;;;8.60;99.90;;;;;;5054883;28;20119;-80
2022/01/04 00:08:26;;;;;;;28.77;9.27;;;8.60;99.90;;;;;;5068668;28;20506;-80
2022/01/04 00:11:06;;;;;;;28.10;9.93;;;8.60;99.90;;;;;;5058390;28;20133;-80
2022/01/04 00:13:32;;;;;;;26.03;9.17;;;8.70;99.90;;;;;;5060836;28;20055;-80
2022/01/04 00:15:58;;;;;;;29.60;9.43;;;8.70;99.90;;;;;;5058656;28;20406;-80
2022/01/04 00:18:24;;;;;;;34.53;10.17;;;8.70;99.90;;;;;;5043866;28;20101;-81
2022/01/04 00:20:52;;;;;;;25.40;9.50;;;8.70;99.90;;;;;;5051046;28;20063;-81
2022/01/04 00:23:18;;;;;;;38.83;9.80;;;8.70;99.90;;;;;;5061933;28;20048;-80
2022/01/04 00:25:44;;;;;;;31.77;9.40;;;8.70;99.90;;;;;;5069950;28;20584;-80
2022/01/04 00:28:11;;;;;;;26.63;8.60;;;8.70;99.90;;;;;;5065965;28;20059;-81
2022/01/04 00:30:38;;;;;;;31.87;9.10;;;8.70;99.90;;;;;;5072927;28;20046;-80
2022/01/04 00:33:05;;;;;;;32.73;9.73;;;8.70;99.90;;;;;;5066566;28;20401;-79
2022/01/04 00:35:31;;;;;;;34.30;9.30;;;8.70;99.90;;;;;;5022405;28;20086;-81
2022/01/04 00:37:57;;;;;;;31.37;8.20;;;8.70;99.90;;;;;;5070296;28;20455;-79
2022/01/04 00:40:24;;;;;;;33.73;9.07;;;8.70;99.90;;;;;;5072966;28;20066;-80
2022/01/04 00:42:50;;;;;;;28.30;8.87;;;8.70;99.90;;;;;;5070685;28;20040;-80
2022/01/04 00:45:17;;;;;;;31.70;10.07;;;8.70;99.90;;;;;;5048486;28;20493;-80
2022/01/04 00:49:09;;;;;;;30.13;9.33;;;8.70;99.90;;;;;;5065624;28;20048;-79
2022/01/04 00:50:33;;;;;;;27.80;9.47;;;8.70;99.90;;;;;;5071737;28;20047;-80
2022/01/04 00:53:00;;;;;;;28.23;8.80;;;8.70;99.90;;;;;;5057673;28;20040;-80
2022/01/04 00:55:26;;;;;;;36.40;10.20;;;8.70;99.90;;;;;;5047390;28;20094;-81
2022/01/04 00:57:52;;;;;;;24.87;8.03;;;8.70;99.90;;;;;;5049067;28;20047;-80
2022/01/04 01:00:21;;;;;;;33.93;9.73;;;8.70;99.90;;;;;;5041074;28;20044;-80
2022/01/04 01:02:47;;;;;;;28.60;9.17;;;8.70;99.90;;;;;;5052859;28;20048;-79
2022/01/04 01:05:14;;;;;;;33.77;8.90;;;8.70;99.90;;;;;;5064471;28;20044;-80
2022/01/04 01:07:40;;;;;;;34.07;10.40;;;8.80;99.90;;;;;;5054967;28;20040;-79
2022/01/04 01:12:52;;;;;;;26.57;9.20;;;8.80;99.90;;;;;;5065985;28;20048;-80
2022/01/04 01:15:20;;;;;;;31.70;9.50;;;8.80;99.90;;;;;;5064053;28;20055;-82
2022/01/04 01:17:46;;;;;;;24.67;8.13;;;8.80;99.90;;;;;;5064986;28;20134;-80
2022/01/04 01:20:13;;;;;;;31.33;8.07;;;8.80;99.90;;;;;;5028080;28;20048;-80
2022/01/04 01:22:40;;;;;;;28.70;8.90;;;8.80;99.90;;;;;;5054289;28;20048;-80
2022/01/04 01:25:07;;;;;;;28.43;8.63;;;8.90;99.90;;;;;;5049237;28;20495;-80
2022/01/04 01:27:33;;;;;;;32.30;10.57;;;8.90;99.90;;;;;;5054942;28;20078;-81
2022/01/04 01:29:59;;;;;;;30.47;9.97;;;8.90;99.90;;;;;;5069479;28;20067;-80
2022/01/04 01:32:26;;;;;;;30.17;10.53;;;8.80;99.90;;;;;;5067189;28;20089;-82
2022/01/04 01:34:52;;;;;;;31.57;10.60;;;8.80;99.90;;;;;;5073901;28;20485;-80
2022/01/04 01:37:17;;;;;;;33.57;10.77;;;8.80;99.90;;;;;;5063192;28;20138;-80
2022/01/04 01:39:43;;;;;;;34.27;10.77;;;8.80;99.90;;;;;;5046541;28;20123;-80
2022/01/04 01:42:09;;;;;;;35.63;11.23;;;8.80;99.90;;;;;;5063693;28;20044;-80
2022/01/04 01:44:36;;;;;;;27.97;10.53;;;8.80;99.90;;;;;;5067675;28;20037;-80
2022/01/04 01:47:02;;;;;;;33.40;10.80;;;8.80;99.90;;;;;;5053266;28;20409;-79
2022/01/04 01:49:29;;;;;;;32.50;11.80;;;8.80;99.90;;;;;;5069434;28;20036;-80
2022/01/04 01:51:55;;;;;;;35.53;11.53;;;8.70;99.90;;;;;;5062900;28;20045;-81
2022/01/04 01:54:22;;;;;;;32.40;11.83;;;8.80;99.90;;;;;;5064868;28;20094;-81
2022/01/04 01:56:48;;;;;;;36.90;11.03;;;8.80;99.90;;;;;;5033671;28;20040;-81
2022/01/04 01:59:14;;;;;;;33.83;11.20;;;8.80;99.90;;;;;;5068451;28;20127;-80
2022/01/04 02:01:40;;;;;;;25.77;11.43;;;8.80;99.90;;;;;;5058227;28;20506;-80
2022/01/04 02:04:07;;;;;;;38.87;11.70;;;8.70;99.90;;;;;;5053981;28;20039;-81
2022/01/04 02:06:34;;;;;;;31.17;11.33;;;8.70;99.90;;;;;;5046502;28;20050;-80
2022/01/04 02:09:01;;;;;;;28.77;11.67;;;8.70;99.90;;;;;;5049685;28;20455;-80
2022/01/04 02:11:31;;;;;;;30.30;11.97;;;8.70;99.90;;;;;;5045956;28;20032;-80
2022/01/04 02:13:57;;;;;;;35.73;12.13;;;8.60;99.90;;;;;;5049554;28;20032;-80
2022/01/04 02:16:24;;;;;;;32.83;12.30;;;8.60;99.90;;;;;;5052235;28;20071;-80
2022/01/04 02:18:50;;;;;;;34.33;12.37;;;8.60;99.90;;;;;;5039503;28;20055;-80
2022/01/04 02:21:18;;;;;;;35.97;12.53;;;8.50;99.90;;;;;;5035522;28;20103;-81
2022/01/04 02:23:43;;;;;;;31.20;12.03;;;8.50;99.90;;;;;;5043998;28;20041;-80
2022/01/04 02:26:09;;;;;;;34.27;12.63;;;8.50;99.90;;;;;;5055677;28;20575;-80
2022/01/04 02:28:35;;;;;;;45.37;12.10;;;8.50;99.90;;;;;;5029992;28;20521;-81
2022/01/04 02:31:01;;;;;;;36.87;12.30;;;8.50;99.90;;;;;;5058973;28;20050;-80
2022/01/04 02:33:27;;;;;;;39.10;13.10;;;8.50;99.90;;;;;;5052702;28;20508;-80
2022/01/04 02:35:52;;;;;;;29.50;11.53;;;8.50;99.90;;;;;;5036943;28;20045;-80
2022/01/04 02:38:19;;;;;;;37.67;12.77;;;8.50;99.90;;;;;;5071033;28;20051;-80
2022/01/04 02:40:45;;;;;;;34.27;13.37;;;8.40;99.90;;;;;;5072456;28;20044;-80
2022/01/04 02:43:11;;;;;;;37.77;12.77;;;8.40;99.90;;;;;;5066068;28;20138;-80
2022/01/04 02:45:36;;;;;;;32.67;13.47;;;8.40;99.90;;;;;;5073715;28;20040;-81
2022/01/04 02:48:02;;;;;;;38.80;12.67;;;8.40;99.90;;;;;;5072343;28;20032;-81
2022/01/04 02:50:28;;;;;;;35.10;13.30;;;8.40;99.90;;;;;;5052763;28;20043;-80
2022/01/04 02:52:54;;;;;;;37.17;13.03;;;8.40;99.90;;;;;;5050145;28;20123;-80
2022/01/04 02:55:21;;;;;;;41.00;13.80;;;8.40;99.90;;;;;;5067932;28;20501;-80
2022/01/04 02:57:47;;;;;;;35.63;12.77;;;8.40;99.90;;;;;;5063209;28;20071;-80
2022/01/04 03:00:16;;;;;;;32.77;13.50;;;8.40;99.90;;;;;;5052091;28;20505;-80
2022/01/04 03:02:42;;;;;;;39.03;14.00;;;8.40;99.90;;;;;;5057158;28;20036;-80
2022/01/04 03:05:09;;;;;;;39.73;14.43;;;8.40;99.90;;;;;;5063778;28;20041;-80
2022/01/04 03:07:35;;;;;;;40.07;14.53;;;8.30;99.90;;;;;;5048691;28;20528;-79
2022/01/04 03:10:01;;;;;;;40.40;14.50;;;8.30;99.90;;;;;;5055189;28;20482;-80
2022/01/04 03:12:28;;;;;;;33.13;14.00;;;8.30;99.90;;;;;;5047310;28;20036;-79
2022/01/04 03:14:54;;;;;;;35.90;14.40;;;8.30;99.90;;;;;;5048186;28;20054;-80
2022/01/04 03:17:20;;;;;;;31.23;14.00;;;8.30;99.90;;;;;;5054247;28;20734;-80
2022/01/04 03:19:45;;;;;;;31.57;13.77;;;8.30;99.90;;;;;;5045618;28;20049;-80
2022/01/04 03:22:11;;;;;;;39.53;14.90;;;8.30;99.90;;;;;;5070498;28;20067;-81
2022/01/04 03:24:37;;;;;;;48.00;15.20;;;8.30;99.90;;;;;;5062016;28;20489;-80
2022/01/04 03:27:03;;;;;;;40.20;14.33;;;8.40;99.90;;;;;;5059721;28;20039;-81
2022/01/04 03:29:30;;;;;;;42.17;15.97;;;8.40;99.90;;;;;;5063325;28;20433;-80
2022/01/04 03:31:57;;;;;;;37.63;14.87;;;8.40;99.90;;;;;;5056847;28;20059;-80
2022/01/04 03:34:23;;;;;;;35.93;14.57;;;8.40;99.90;;;;;;5094204;28;20047;-80
2022/01/04 03:36:49;;;;;;;38.03;15.33;;;8.40;99.90;;;;;;5069461;28;20047;-79
2022/01/04 03:39:15;;;;;;;41.27;15.23;;;8.40;99.90;;;;;;5059695;28;20048;-80
2022/01/04 03:41:43;;;;;;;36.73;14.70;;;8.50;99.90;;;;;;5052787;28;20044;-80
2022/01/04 03:44:11;;;;;;;39.80;14.90;;;8.50;99.90;;;;;;5072219;28;20044;-80
2022/01/04 03:46:38;;;;;;;40.53;15.17;;;8.50;99.90;;;;;;5068925;28;20039;-79
2022/01/04 03:49:04;;;;;;;38.57;15.43;;;8.50;99.90;;;;;;5076612;28;20051;-80
2022/01/04 03:51:29;;;;;;;37.47;15.73;;;8.50;99.90;;;;;;5071037;28;20512;-80
2022/01/04 03:53:55;;;;;;;39.63;15.40;;;8.50;99.90;;;;;;5063664;28;20040;-80
2022/01/04 03:56:21;;;;;;;36.80;16.17;;;8.60;99.90;;;;;;5064689;28;20048;-80
2022/01/04 03:58:47;;;;;;;46.80;17.47;;;8.60;99.90;;;;;;5058922;28;20040;-80
2022/01/04 04:01:13;;;;;;;38.20;16.60;;;8.60;99.90;;;;;;5053023;28;20043;-81
2022/01/04 04:03:40;;;;;;;35.97;16.00;;;8.60;99.90;;;;;;5058472;28;20044;-80
2022/01/04 04:06:06;;;;;;;32.37;15.90;;;8.60;99.90;;;;;;5040186;28;20230;-80
2022/01/04 04:08:31;;;;;;;35.80;15.17;;;8.60;99.90;;;;;;5065932;28;20048;-79
2022/01/04 04:10:57;;;;;;;34.10;16.50;;;8.60;99.90;;;;;;5067018;28;20493;-80
2022/01/04 04:13:23;;;;;;;35.87;15.63;;;8.60;99.90;;;;;;5066849;28;20398;-80
2022/01/04 04:15:49;;;;;;;36.97;15.37;;;8.60;99.90;;;;;;5070992;28;20035;-79
2022/01/04 04:18:16;;;;;;;33.10;15.47;;;8.70;99.90;;;;;;5064495;28;20520;-80
2022/01/04 04:20:44;;;;;;;38.70;16.70;;;8.70;99.90;;;;;;5048402;28;20047;-80
2022/01/04 04:23:11;;;;;;;35.03;15.83;;;8.70;99.90;;;;;;5063972;28;20098;-80
2022/01/04 04:25:37;;;;;;;38.40;15.97;;;8.70;99.90;;;;;;5074168;28;20090;-81
2022/01/04 04:28:04;;;;;;;34.90;16.47;;;8.70;99.90;;;;;;5038818;28;20040;-80
2022/01/04 04:30:29;;;;;;;37.90;15.37;;;8.70;99.90;;;;;;5057652;28;20123;-79
2022/01/04 04:32:55;;;;;;;34.03;16.00;;;8.60;99.90;;;;;;5046694;28;20131;-81
2022/01/04 04:35:22;;;;;;;32.50;15.90;;;8.60;99.90;;;;;;5049843;28;20040;-81
2022/01/04 04:37:49;;;;;;;36.30;16.03;;;8.70;99.90;;;;;;5051224;28;20501;-80
2022/01/04 04:40:14;;;;;;;35.03;16.23;;;8.70;99.90;;;;;;5043903;28;20055;-80
2022/01/04 04:42:41;;;;;;;32.10;16.80;;;8.70;99.90;;;;;;5056973;28;20118;-80
2022/01/04 04:45:08;;;;;;;33.77;15.83;;;8.70;99.90;;;;;;5047369;28;20123;-81
2022/01/04 04:47:35;;;;;;;43.07;17.50;;;8.70;99.90;;;;;;5053610;28;20040;-81
2022/01/04 04:50:01;;;;;;;29.73;16.17;;;8.70;99.90;;;;;;5046067;28;20075;-81
2022/01/04 04:52:26;;;;;;;41.50;18.57;;;8.70;99.90;;;;;;5063166;28;20454;-80
2022/01/04 04:54:54;;;;;;;41.80;17.20;;;8.70;99.90;;;;;;5069670;28;20088;-80
2022/01/04 04:57:19;;;;;;;31.53;16.37;;;8.70;99.90;;;;;;5050957;28;20048;-81
2022/01/04 04:59:45;;;;;;;36.33;16.57;;;8.70;99.90;;;;;;5041484;28;20200;-81
2022/01/04 05:02:11;;;;;;;34.53;17.50;;;8.70;99.90;;;;;;5047490;28;20040;-81
2022/01/04 05:04:37;;;;;;;42.93;18.83;;;8.70;99.90;;;;;;5021679;28;20464;-80
2022/01/04 05:07:04;;;;;;;37.40;17.77;;;8.70;99.90;;;;;;5049477;28;20040;-80
2022/01/04 05:09:30;;;;;;;31.97;17.93;;;8.70;99.90;;;;;;5038752;28;20114;-81
2022/01/04 05:11:57;;;;;;;41.23;18.60;;;8.70;99.90;;;;;;5049374;28;20497;-81
2022/01/04 05:14:23;;;;;;;36.80;17.90;;;8.60;99.90;;;;;;5039522;28;20048;-81
2022/01/04 05:16:48;;;;;;;34.90;16.97;;;8.60;99.90;;;;;;5066312;28;20044;-81
2022/01/04 05:19:14;;;;;;;35.27;16.90;;;8.60;99.90;;;;;;5058815;28;20127;-81
2022/01/04 05:21:40;;;;;;;32.77;16.87;;;8.60;99.90;;;;;;5073582;28;20040;-81
2022/01/04 05:24:06;;;;;;;29.73;16.63;;;8.60;99.90;;;;;;5052762;28;20044;-80
2022/01/04 05:26:35;;;;;;;34.60;17.67;;;8.60;99.90;;;;;;5066030;28;20036;-81
2022/01/04 05:29:02;;;;;;;37.93;15.70;;;8.60;99.90;;;;;;5057300;28;20477;-82
2022/01/04 05:31:28;;;;;;;36.13;16.27;;;8.60;99.90;;;;;;5064356;28;20041;-82
2022/01/04 05:33:54;;;;;;;39.27;16.97;;;8.60;99.90;;;;;;5057314;28;20418;-82
2022/01/04 05:36:20;;;;;;;33.87;16.33;;;8.60;99.90;;;;;;5071723;28;20093;-81
2022/01/04 05:38:47;;;;;;;33.17;16.30;;;8.60;99.90;;;;;;5063849;28;20044;-81
2022/01/04 05:41:13;;;;;;;34.47;17.33;;;8.50;99.90;;;;;;5056243;28;20058;-81
2022/01/04 05:43:39;;;;;;;36.03;18.50;;;8.50;99.90;;;;;;5039375;28;20048;-81
2022/01/04 05:46:06;;;;;;;35.57;16.47;;;8.50;99.90;;;;;;5065244;28;20036;-81
2022/01/04 05:48:32;;;;;;;37.50;17.43;;;8.50;99.90;;;;;;5023145;28;20048;-82
2022/01/04 05:50:58;;;;;;;34.73;16.73;;;8.50;99.90;;;;;;5033970;28;20064;-82
2022/01/04 05:53:24;;;;;;;35.70;17.13;;;8.50;99.90;;;;;;5046268;28;20094;-82
2022/01/04 05:55:50;;;;;;;38.27;17.67;;;8.50;99.90;;;;;;5044533;28;20054;-81
2022/01/04 05:58:16;;;;;;;38.43;18.23;;;8.50;99.90;;;;;;5044406;28;20485;-81
2022/01/04 06:00:41;;;;;;;38.40;16.63;;;8.50;99.90;;;;;;5045079;28;20054;-82
2022/01/04 06:03:08;;;;;;;38.17;17.70;;;8.50;99.90;;;;;;5051980;28;20458;-81
2022/01/04 06:05:34;;;;;;;32.33;17.13;;;8.50;99.90;;;;;;5047626;28;20044;-81
2022/01/04 06:08:00;;;;;;;44.33;18.23;;;8.50;99.90;;;;;;5042817;28;20047;-81
2022/01/04 06:10:26;;;;;;;35.50;19.10;;;8.50;99.90;;;;;;5060409;28;20032;-81
2022/01/04 06:15:17;;;;;;;31.60;17.93;;;8.50;99.90;;;;;;5058408;28;20509;-80
2022/01/04 06:17:47;;;;;;;35.93;18.17;;;8.50;99.90;;;;;;5068950;28;20058;-81
2022/01/04 06:20:17;;;;;;;35.17;18.07;;;8.50;99.90;;;;;;5052655;28;20109;-81
2022/01/04 06:22:43;;;;;;;43.60;19.20;;;8.60;99.90;;;;;;5045300;28;20523;-81
2022/01/04 06:25:11;;;;;;;32.97;17.63;;;8.60;99.90;;;;;;5049077;28;20120;-81
2022/01/04 06:27:37;;;;;;;36.23;18.43;;;8.60;99.90;;;;;;5046038;28;20036;-81
2022/01/04 06:30:04;;;;;;;38.40;19.50;;;8.50;99.90;;;;;;5071197;28;20040;-81
2022/01/04 06:32:29;;;;;;;40.80;19.47;;;8.50;99.90;;;;;;5044846;28;20040;-82
2022/01/04 06:34:55;;;;;;;42.83;20.67;;;8.50;99.90;;;;;;5067072;28;20041;-82
2022/01/04 06:37:22;;;;;;;37.70;19.17;;;8.50;99.90;;;;;;5069547;28;20072;-80
2022/01/04 06:39:48;;;;;;;41.03;20.67;;;8.50;99.90;;;;;;5054115;28;20078;-81
2022/01/04 06:42:14;;;;;;;38.47;21.30;;;8.50;99.90;;;;;;5063958;28;20048;-81
2022/01/04 06:44:43;;;;;;;47.37;20.57;;;8.40;99.90;;;;;;5059951;28;20032;-81
2022/01/04 06:47:09;;;;;;;42.03;20.37;;;8.40;99.90;;;;;;5040092;28;20498;-81
2022/01/04 06:49:36;;;;;;;39.60;21.40;;;8.40;99.90;;;;;;5055815;28;20554;-82
2022/01/04 06:52:03;;;;;;;44.90;21.30;;;8.40;99.90;;;;;;5055132;28;20157;-81
2022/01/04 06:54:30;;;;;;;39.90;21.57;;;8.50;99.90;;;;;;5037393;28;20068;-82
2022/01/04 06:56:56;;;;;;;42.70;21.43;;;8.50;99.90;;;;;;5056782;28;20043;-82
2022/01/04 06:59:22;;;;;;;43.50;22.00;;;8.50;99.90;;;;;;5055660;28;20516;-82
2022/01/04 07:01:48;;;;;;;44.43;22.57;;;8.50;99.90;;;;;;5049428;28;20071;-82
2022/01/04 07:04:15;;;;;;;40.13;21.50;;;8.50;99.90;;;;;;5072516;28;20051;-82
2022/01/04 07:06:40;;;;;;;38.40;22.13;;;8.40;99.90;;;;;;5061447;28;20052;-82
2022/01/04 07:09:07;;;;;;;43.70;22.00;;;8.40;99.90;;;;;;5063751;28;20195;-81
2022/01/04 07:11:35;;;;;;;42.70;22.97;;;8.50;99.90;;;;;;5041645;28;20044;-81
2022/01/04 07:14:02;;;;;;;45.87;23.83;;;8.50;99.90;;;;;;5055753;28;20433;-81
2022/01/04 07:16:27;;;;;;;52.20;24.47;;;8.40;99.90;;;;;;5056619;28;20083;-81
2022/01/04 07:18:54;;;;;;;54.43;24.73;;;8.40;99.90;;;;;;5052452;28;20082;-81
2022/01/04 07:21:21;;;;;;;51.43;25.53;;;8.40;99.90;;;;;;5069377;28;20131;-82
2022/01/04 07:23:48;;;;;;;57.23;26.33;;;8.50;99.90;;;;;;5070326;28;20040;-83
2022/01/04 07:26:15;;;;;;;46.73;26.10;;;8.50;99.90;;;;;;5056805;28;20044;-81
2022/01/04 07:28:44;;;;;;;47.13;24.70;;;8.40;99.90;;;;;;5058563;28;20049;-82
2022/01/04 07:31:10;;;;;;;47.27;24.20;;;8.50;99.90;;;;;;5089558;28;20040;-83
2022/01/04 07:33:37;;;;;;;44.10;23.87;;;8.50;99.90;;;;;;5051273;28;22082;-81
2022/01/04 07:36:06;;;;;;;43.00;24.40;;;8.40;99.90;;;;;;5053741;28;20040;-82
2022/01/04 07:38:31;;;;;;;37.13;20.83;;;8.40;99.90;;;;;;5068299;28;20497;-82
2022/01/04 07:40:57;;;;;;;38.57;22.03;;;8.40;99.90;;;;;;5037891;28;20046;-81
2022/01/04 07:43:23;;;;;;;44.37;22.53;;;8.40;99.90;;;;;;5069720;28;20106;-81
2022/01/04 07:45:50;;;;;;;40.60;22.90;;;8.40;99.90;;;;;;5032968;28;20510;-82
2022/01/04 07:48:15;;;;;;;49.50;23.53;;;8.40;99.90;;;;;;5035431;28;20057;-81
2022/01/04 07:50:41;;;;;;;42.40;23.90;;;8.40;99.90;;;;;;5048943;28;20044;-82
2022/01/04 07:53:08;;;;;;;41.90;23.73;;;8.40;99.90;;;;;;5054820;28;20048;-82
2022/01/04 07:55:34;;;;;;;48.63;26.30;;;8.40;99.90;;;;;;5056921;28;20044;-83
2022/01/04 07:58:00;;;;;;;55.70;27.33;;;8.40;99.90;;;;;;5059203;28;20036;-83
2022/01/04 08:00:27;;;;;;;54.93;27.07;;;8.40;99.90;;;;;;5057998;28;20125;-82
2022/01/04 08:02:55;;;;;;;53.97;26.47;;;8.40;99.90;;;;;;5043567;28;20076;-80
2022/01/04 08:05:21;;;;;;;43.60;25.50;;;8.40;99.90;;;;;;5076713;28;20395;-83
2022/01/04 08:07:47;;;;;;;45.87;25.97;;;8.40;99.90;;;;;;5038648;28;20048;-82
2022/01/04 08:10:13;;;;;;;42.67;25.37;;;8.40;99.90;;;;;;5030437;28;20512;-82
2022/01/04 08:12:39;;;;;;;42.33;24.13;;;8.40;99.90;;;;;;5046126;28;20164;-81
2022/01/04 08:15:07;;;;;;;43.40;24.57;;;8.40;99.90;;;;;;5047370;28;20375;-82
2022/01/04 08:17:33;;;;;;;42.83;24.73;;;8.40;99.90;;;;;;5040428;28;20484;-82
2022/01/04 08:20:01;;;;;;;44.87;23.07;;;8.40;99.90;;;;;;5046660;28;20036;-82
2022/01/04 08:22:32;;;;;;;41.23;24.73;;;8.40;99.90;;;;;;5059252;28;20040;-81
2022/01/04 08:24:58;;;;;;;45.57;23.57;;;8.40;99.90;;;;;;5037074;28;20067;-80
2022/01/04 08:27:24;;;;;;;46.23;22.97;;;8.40;99.90;;;;;;5072332;28;20501;-82
2022/01/04 08:29:49;;;;;;;40.60;23.33;;;8.40;99.90;;;;;;5055886;28;20039;-80
2022/01/04 08:32:16;;;;;;;37.93;21.80;;;8.40;99.90;;;;;;5066229;28;20049;-82
2022/01/04 08:34:41;;;;;;;42.03;23.87;;;8.40;99.90;;;;;;5040701;28;20035;-82
2022/01/04 08:37:08;;;;;;;37.07;22.80;;;8.40;99.90;;;;;;5049206;28;20525;-81
2022/01/04 08:39:34;;;;;;;38.47;23.67;;;8.40;99.90;;;;;;5069774;28;20051;-82
2022/01/04 08:42:01;;;;;;;42.37;24.97;;;8.40;99.90;;;;;;5046699;28;20135;-80
2022/01/04 08:44:28;;;;;;;46.90;25.40;;;8.40;99.90;;;;;;5070307;28;20619;-82
2022/01/04 08:46:54;;;;;;;42.33;24.47;;;8.40;99.90;;;;;;5048431;28;20043;-81
2022/01/04 08:49:20;;;;;;;42.17;23.70;;;8.40;99.90;;;;;;5065067;28;20044;-82
2022/01/04 08:51:46;;;;;;;38.27;24.77;;;8.40;99.90;;;;;;5066060;28;20052;-82
2022/01/04 08:54:15;;;;;;;46.70;24.87;;;8.40;99.90;;;;;;5051229;28;20044;-81
2022/01/04 08:56:42;;;;;;;42.33;24.97;;;8.40;99.90;;;;;;5069285;28;20073;-81
2022/01/04 08:59:10;;;;;;;51.60;25.67;;;8.40;99.90;;;;;;5065729;28;20045;-83
2022/01/04 09:01:36;;;;;;;8.63;3.30;;;8.40;99.90;;;;;;5057614;28;20420;-82
2022/01/04 09:04:06;;;;;;;15.53;7.40;;;8.30;99.90;;;;;;5049189;28;20028;-82
2022/01/04 09:06:32;;;;;;;8.23;3.30;;;8.10;99.90;;;;;;5054402;28;20040;-81
2022/01/04 09:08:58;;;;;;;7.57;2.70;;;7.90;99.90;;;;;;5044852;28;20131;-83
2022/01/04 09:11:25;;;;;;;7.43;2.60;;;7.80;99.90;;;;;;5030294;28;20179;-83
2022/01/04 09:13:55;;;;;;;9.57;3.03;;;7.70;99.90;;;;;;5067908;28;20044;-82
2022/01/04 09:19:05;;;;;;;14.00;3.17;;;7.60;99.90;;;;;;5048682;28;20044;-82
2022/01/04 09:21:31;;;;;;;11.07;3.13;;;7.60;99.90;;;;;;5048095;28;20410;-82
2022/01/04 09:23:59;;;;;;;12.27;3.30;;;7.60;99.90;;;;;;5064169;28;20040;-82
2022/01/04 09:26:27;;;;;;;10.50;3.33;;;7.60;99.90;;;;;;5048796;28;20097;-83
2022/01/04 09:28:54;;;;;;;15.67;3.60;;;7.60;99.90;;;;;;5047156;28;20055;-82
2022/01/04 09:31:21;;;;;;;12.77;3.73;;;7.60;99.90;;;;;;5056950;28;20490;-83
2022/01/04 09:33:47;;;;;;;11.60;3.90;;;7.60;99.90;;;;;;5069661;28;20087;-83
2022/01/04 09:36:13;;;;;;;18.97;3.93;;;7.60;99.90;;;;;;5049223;28;20052;-83
2022/01/04 09:38:39;;;;;;;17.27;3.87;;;7.70;99.90;;;;;;5040693;28;20047;-83
2022/01/04 09:41:05;;;;;;;14.27;4.20;;;7.80;99.90;;;;;;5024300;28;20489;-82
2022/01/04 09:43:32;;;;;;;14.03;3.37;;;7.80;99.90;;;;;;5069885;28;20504;-83
2022/01/04 09:45:58;;;;;;;16.73;3.80;;;7.90;99.90;;;;;;5034204;28;20143;-82
2022/01/04 09:48:23;;;;;;;18.13;4.10;;;7.90;99.90;;;;;;5056488;28;20123;-83
2022/01/04 09:50:50;;;;;;;18.97;4.77;;;7.90;99.90;;;;;;5025258;28;20032;-83
2022/01/04 09:53:22;;;;;;;23.17;8.77;;;8.00;99.90;;;;;;5045606;28;20141;-83
2022/01/04 09:55:49;;;;;;;22.63;8.40;;;8.00;99.90;;;;;;5049134;28;20101;-82
2022/01/04 09:58:17;;;;;;;28.50;12.27;;;8.00;99.90;;;;;;5029145;28;20054;-82
2022/01/04 10:00:44;;;;;;;33.13;13.33;;;8.10;99.90;;;;;;5068772;28;20067;-83
2022/01/04 10:03:13;;;;;;;28.13;12.83;;;8.10;99.90;;;;;;5087101;28;20079;-83
2022/01/04 10:05:39;;;;;;;32.73;14.77;;;8.10;99.90;;;;;;5030888;28;20052;-82
2022/01/04 10:08:07;;;;;;;36.63;14.10;;;8.10;99.90;;;;;;5046253;28;20115;-82
2022/01/04 10:10:35;;;;;;;34.13;14.63;;;8.20;99.90;;;;;;5045212;28;20032;-83
2022/01/04 10:13:02;;;;;;;15.07;5.47;;;8.20;99.90;;;;;;5033855;28;20041;-81
2022/01/04 10:15:31;;;;;;;10.87;4.40;;;8.20;99.90;;;;;;5054032;28;20118;-82
2022/01/04 10:18:01;;;;;;;10.57;4.00;;;8.20;99.90;;;;;;5061314;28;20692;-81
2022/01/04 10:20:27;;;;;;;16.07;4.90;;;8.20;99.90;;;;;;5063896;28;20036;-81
2022/01/04 10:22:53;;;;;;;17.00;4.40;;;8.10;99.90;;;;;;5040035;28;20113;-82
2022/01/04 10:25:20;;;;;;;19.67;5.57;;;8.10;99.90;;;;;;5049621;28;20040;-80
2022/01/04 10:27:47;;;;;;;13.70;4.20;;;8.10;99.90;;;;;;5027816;28;20039;-81
2022/01/04 10:30:25;;;;;;;14.87;4.63;;;8.10;99.90;;;;;;5052653;28;20390;-81
2022/01/04 10:32:54;;;;;;;16.57;3.77;;;8.10;99.90;;;;;;5066641;28;20161;-80
2022/01/04 10:35:31;;;;;;;12.77;2.83;;;8.10;99.90;;;;;;5044485;28;20048;-82
2022/01/04 10:37:59;;;;;;;17.07;3.10;;;8.10;99.90;;;;;;5044176;28;20081;-81
2022/01/04 10:40:26;;;;;;;14.10;2.87;;;8.00;99.90;;;;;;5033448;28;20056;-81
2022/01/04 10:42:53;;;;;;;8.70;1.80;;;8.00;99.90;;;;;;5058591;28;20040;-82
2022/01/04 10:45:29;;;;;;;7.87;1.67;;;8.00;99.90;;;;;;5031759;28;20127;-81
2022/01/04 10:47:55;;;;;;;9.47;1.30;;;7.90;99.90;;;;;;5035588;28;20062;-81
2022/01/04 10:50:34;;;;;;;8.00;1.83;;;7.90;99.90;;;;;;5068391;28;20040;-82
2022/01/04 10:53:02;;;;;;;7.67;1.27;;;7.90;99.90;;;;;;5047961;28;20044;-82
2022/01/04 10:55:31;;;;;;;9.80;1.30;;;7.80;99.90;;;;;;5072624;28;20043;-81
2022/01/04 10:57:57;;;;;;;5.43;1.13;;;7.80;99.90;;;;;;5066199;28;20383;-82
2022/01/04 11:00:24;;;;;;;2.67;0.63;;;7.80;99.90;;;;;;5049607;28;20040;-82
2022/01/04 11:02:50;;;;;;;10.03;1.20;;;7.70;99.90;;;;;;5056057;28;20094;-81
2022/01/04 11:05:18;;;;;;;6.37;1.00;;;7.70;99.90;;;;;;5045599;28;20044;-81
2022/01/04 11:07:59;;;;;;;5.27;1.17;;;7.80;99.90;;;;;;5054359;28;20039;-82
2022/01/04 11:10:25;;;;;;;6.40;1.20;;;7.70;99.90;;;;;;5052565;28;20448;-82
2022/01/04 11:12:52;;;;;;;6.63;1.43;;;7.70;99.90;;;;;;5064937;28;20485;-83
2022/01/04 11:15:18;;;;;;;11.27;1.10;;;7.60;99.90;;;;;;5052620;28;20047;-82
2022/01/04 11:17:44;;;;;;;6.50;1.00;;;7.60;99.90;;;;;;5060669;28;20049;-82
2022/01/04 11:20:11;;;;;;;8.23;1.23;;;7.60;99.90;;;;;;5064589;28;20071;-83
2022/01/04 11:22:40;;;;;;;3.90;1.20;;;7.70;99.90;;;;;;5042217;28;20043;-81
2022/01/04 11:25:08;;;;;;;8.27;1.80;;;7.70;99.90;;;;;;5037233;28;20604;-83
2022/01/04 11:27:38;;;;;;;9.70;3.63;;;7.70;99.90;;;;;;5039025;28;20502;-81
2022/01/04 11:30:11;;;;;;;5.33;1.70;;;7.60;99.90;;;;;;5052359;28;20143;-80
2022/01/04 11:32:40;;;;;;;3.33;0.80;;;7.60;99.90;;;;;;5063519;28;20525;-80
2022/01/04 11:35:12;;;;;;;4.20;1.27;;;7.50;99.90;;;;;;5052856;28;20095;-82
2022/01/04 11:37:41;;;;;;;2.70;0.80;;;7.50;99.90;;;;;;5055699;28;20069;-82
2022/01/04 11:40:31;;;;;;;4.60;1.97;;;7.40;99.90;;;;;;5048855;28;20061;-80
2022/01/04 11:42:56;;;;;;;8.00;3.60;;;7.40;99.90;;;;;;5045198;28;20135;-83
2022/01/04 11:45:44;;;;;;;8.67;4.57;;;7.40;99.90;;;;;;5048389;28;20154;-83
2022/01/04 11:48:27;;;;;;;7.10;2.50;;;7.40;99.90;;;;;;5025519;28;20079;-82
2022/01/04 11:50:54;;;;;;;3.80;1.60;;;7.30;99.90;;;;;;5032835;28;20085;-82
2022/01/04 11:53:20;;;;;;;6.83;1.03;;;7.20;99.90;;;;;;5047271;28;20489;-82
2022/01/04 11:55:50;;;;;;;7.00;1.20;;;7.20;99.90;;;;;;5041333;28;20043;-82
2022/01/04 11:58:17;;;;;;;3.67;0.80;;;7.20;99.90;;;;;;5045940;28;20052;-82
2022/01/04 12:00:48;;;;;;;6.03;0.77;;;7.20;99.90;;;;;;5049463;28;20123;-82
2022/01/04 12:03:15;;;;;;;8.67;1.30;;;7.20;99.90;;;;;;5035774;28;20048;-82
2022/01/04 12:05:58;;;;;;;6.07;1.00;;;7.20;99.90;;;;;;5059037;28;20097;-82
2022/01/04 12:08:25;;;;;;;7.00;1.63;;;7.30;99.90;;;;;;5046653;28;20079;-82
2022/01/04 12:10:54;;;;;;;5.40;1.30;;;7.20;99.90;;;;;;5042966;28;20036;-82
2022/01/04 12:13:21;;;;;;;7.53;1.37;;;7.30;99.90;;;;;;5046294;28;20056;-82
2022/01/04 12:16:03;;;;;;;5.27;0.70;;;7.30;99.90;;;;;;5041954;28;20078;-82
2022/01/04 12:18:59;;;;;;;5.10;0.87;;;7.20;99.90;;;;;;5038004;28;20041;-82
2022/01/04 12:21:41;;;;;;;4.90;0.90;;;7.20;99.90;;;;;;5058852;28;20037;-81
2022/01/04 12:24:09;;;;;;;4.80;0.80;;;7.20;99.90;;;;;;5053337;28;20047;-82
2022/01/04 12:26:38;;;;;;;4.77;0.77;;;7.10;99.90;;;;;;5068286;28;20493;-82
2022/01/04 12:29:31;;;;;;;12.57;1.00;;;7.00;99.90;;;;;;5041856;28;20131;-82
2022/01/04 12:32:02;;;;;;;12.93;1.37;;;6.90;99.90;;;;;;5000424;28;20037;-82
2022/01/04 12:34:34;;;;;;;9.27;0.90;;;6.80;99.90;;;;;;5073178;28;20051;-82
2022/01/04 12:37:01;;;;;;;9.37;0.90;;;6.80;99.90;;;;;;5057518;28;20561;-82
2022/01/04 12:39:33;;;;;;;8.10;0.90;;;6.80;99.90;;;;;;5059748;28;20044;-82
2022/01/04 12:42:01;;;;;;;7.57;1.37;;;6.80;99.90;;;;;;5054064;28;20046;-82
2022/01/04 12:44:28;;;;;;;7.13;1.00;;;6.80;99.90;;;;;;5055171;28;20060;-83
2022/01/04 12:46:55;;;;;;;11.67;1.00;;;6.80;99.90;;;;;;5045052;28;20044;-82
2022/01/04 12:49:22;;;;;;;4.27;0.80;;;6.80;99.90;;;;;;5046420;28;20071;-82
2022/01/04 12:51:51;;;;;;;6.47;1.00;;;6.90;99.90;;;;;;5054136;28;20040;-82